sensor_id;sensor_type;location;lat;lon;timestamp;temperature;humidity
51867;DHT22;52862;52.504;13.480;2022-08-19T00:01:23;22.00;99.90
51867;DHT22;52862;52.504;13.480;2022-08-19T00:03:56;21.80;99.90
51867;DHT22;52862;52.504;13.480;2022-08-19T00:06:24;22.10;99.90
51867;DHT22;52862;52.504;13.480;2022-08-19T00:08:51;22.00;99.90
51867;DHT22;52862;52.504;13.480;2022-08-19T00:11:18;22.00;99.90
51867;DHT22;52862;52.504;13.480;2022-08-19T00:13:52;22.00;99.90
51867;DHT22;52862;52.504;13.480;2022-08-19T00:16:20;22.30;99.90
51867;DHT22;52862;52.504;13.480;2022-08-19T00:18:52;22.50;99.90
51867;DHT22;52862;52.504;13.480;2022-08-19T00:21:19;22.50;99.90
51867;DHT22;52862;52.504;13.480;2022-08-19T00:23:47;22.50;99.90
51867;DHT22;52862;52.504;13.480;2022-08-19T00:26:14;22.40;99.90
51867;DHT22;52862;52.504;13.480;2022-08-19T00:28:40;22.40;99.90
51867;DHT22;52862;52.504;13.480;2022-08-19T00:31:08;22.50;99.90
51867;DHT22;52862;52.504;13.480;2022-08-19T00:33:36;22.40;99.90
51867;DHT22;52862;52.504;13.480;2022-08-19T00:36:05;22.40;99.90
51867;DHT22;52862;52.504;13.480;2022-08-19T00:38:32;22.40;99.90
51867;DHT22;52862;52.504;13.480;2022-08-19T00:41:04;22.40;99.90
51867;DHT22;52862;52.504;13.480;2022-08-19T00:43:32;22.40;99.90
51867;DHT22;52862;52.504;13.480;2022-08-19T00:45:59;22.30;99.90
51867;DHT22;52862;52.504;13.480;2022-08-19T00:48:27;22.10;99.90
51867;DHT22;52862;52.504;13.480;2022-08-19T00:50:54;21.90;99.90
51867;DHT22;52862;52.504;13.480;2022-08-19T00:53:26;21.90;99.90
51867;DHT22;52862;52.504;13.480;2022-08-19T00:55:56;21.90;99.90
51867;DHT22;52862;52.504;13.480;2022-08-19T00:58:28;22.00;99.90
51867;DHT22;52862;52.504;13.480;2022-08-19T01:00:55;22.00;99.90
51867;DHT22;52862;52.504;13.480;2022-08-19T01:03:22;22.00;99.90
51867;DHT22;52862;52.504;13.480;2022-08-19T01:05:50;22.00;99.90
51867;DHT22;52862;52.504;13.480;2022-08-19T01:08:19;22.00;99.90
51867;DHT22;52862;52.504;13.480;2022-08-19T01:10:48;22.00;99.90
51867;DHT22;52862;52.504;13.480;2022-08-19T01:13:17;22.00;99.90
51867;DHT22;52862;52.504;13.480;2022-08-19T01:15:52;21.80;99.90
51867;DHT22;52862;52.504;13.480;2022-08-19T01:18:21;22.00;99.90
51867;DHT22;52862;52.504;13.480;2022-08-19T01:20:49;22.00;99.90
51867;DHT22;52862;52.504;13.480;2022-08-19T01:23:17;22.00;99.90
51867;DHT22;52862;52.504;13.480;2022-08-19T01:25:47;22.00;99.90
51867;DHT22;52862;52.504;13.480;2022-08-19T01:28:23;22.10;99.90
51867;DHT22;52862;52.504;13.480;2022-08-19T01:31:06;22.00;99.90
51867;DHT22;52862;52.504;13.480;2022-08-19T01:33:34;22.00;99.90
51867;DHT22;52862;52.504;13.480;2022-08-19T01:36:06;22.10;99.90
51867;DHT22;52862;52.504;13.480;2022-08-19T01:38:37;22.00;99.90
51867;DHT22;52862;52.504;13.480;2022-08-19T01:41:11;22.00;99.90
51867;DHT22;52862;52.504;13.480;2022-08-19T01:43:38;22.00;99.90
51867;DHT22;52862;52.504;13.480;2022-08-19T01:46:25;21.90;99.90
51867;DHT22;52862;52.504;13.480;2022-08-19T01:48:52;21.80;99.90
51867;DHT22;52862;52.504;13.480;2022-08-19T01:51:19;21.80;99.90
51867;DHT22;52862;52.504;13.480;2022-08-19T01:53:48;21.70;99.90
51867;DHT22;52862;52.504;13.480;2022-08-19T01:56:15;21.60;99.90
51867;DHT22;52862;52.504;13.480;2022-08-19T01:58:47;21.70;99.90
51867;DHT22;52862;52.504;13.480;2022-08-19T02:01:17;21.50;99.90
51867;DHT22;52862;52.504;13.480;2022-08-19T02:03:44;21.40;99.90
51867;DHT22;52862;52.504;13.480;2022-08-19T02:06:12;21.40;99.90
51867;DHT22;52862;52.504;13.480;2022-08-19T02:08:40;21.30;99.90
51867;DHT22;52862;52.504;13.480;2022-08-19T02:11:07;21.10;99.90
51867;DHT22;52862;52.504;13.480;2022-08-19T02:13:35;20.70;99.90
51867;DHT22;52862;52.504;13.480;2022-08-19T02:16:02;20.60;99.90
51867;DHT22;52862;52.504;13.480;2022-08-19T02:18:30;20.70;99.90
51867;DHT22;52862;52.504;13.480;2022-08-19T02:20:57;20.70;99.90
51867;DHT22;52862;52.504;13.480;2022-08-19T02:23:24;20.80;99.90
51867;DHT22;52862;52.504;13.480;2022-08-19T02:25:51;20.90;99.90
51867;DHT22;52862;52.504;13.480;2022-08-19T02:28:22;21.00;99.90
51867;DHT22;52862;52.504;13.480;2022-08-19T02:30:49;20.90;99.90
51867;DHT22;52862;52.504;13.480;2022-08-19T02:33:16;21.10;99.90
51867;DHT22;52862;52.504;13.480;2022-08-19T02:35:45;21.10;99.90
51867;DHT22;52862;52.504;13.480;2022-08-19T02:38:13;21.10;99.90
51867;DHT22;52862;52.504;13.480;2022-08-19T02:40:54;21.30;99.90
51867;DHT22;52862;52.504;13.480;2022-08-19T02:43:25;21.40;99.90
51867;DHT22;52862;52.504;13.480;2022-08-19T02:45:54;21.50;99.90
51867;DHT22;52862;52.504;13.480;2022-08-19T02:48:23;21.50;99.90
51867;DHT22;52862;52.504;13.480;2022-08-19T02:50:52;21.50;99.90
51867;DHT22;52862;52.504;13.480;2022-08-19T02:53:22;21.50;99.90
51867;DHT22;52862;52.504;13.480;2022-08-19T02:55:54;21.60;99.90
51867;DHT22;52862;52.504;13.480;2022-08-19T02:58:23;21.50;99.90
51867;DHT22;52862;52.504;13.480;2022-08-19T03:00:53;21.50;99.90
51867;DHT22;52862;52.504;13.480;2022-08-19T03:03:23;21.50;99.90
51867;DHT22;52862;52.504;13.480;2022-08-19T03:06:03;21.50;99.90
51867;DHT22;52862;52.504;13.480;2022-08-19T03:08:31;21.50;99.90
51867;DHT22;52862;52.504;13.480;2022-08-19T03:11:06;21.50;99.90
51867;DHT22;52862;52.504;13.480;2022-08-19T03:13:36;21.50;99.90
51867;DHT22;52862;52.504;13.480;2022-08-19T03:16:06;21.40;99.90
51867;DHT22;52862;52.504;13.480;2022-08-19T03:18:34;21.40;99.90
51867;DHT22;52862;52.504;13.480;2022-08-19T03:21:01;21.40;99.90
51867;DHT22;52862;52.504;13.480;2022-08-19T03:23:28;21.40;99.90
51867;DHT22;52862;52.504;13.480;2022-08-19T03:25:58;21.50;99.90
51867;DHT22;52862;52.504;13.480;2022-08-19T03:28:45;21.20;99.90
51867;DHT22;52862;52.504;13.480;2022-08-19T03:31:20;21.20;99.90
51867;DHT22;52862;52.504;13.480;2022-08-19T03:34:15;21.30;99.90
51867;DHT22;52862;52.504;13.480;2022-08-19T03:36:47;21.20;99.90
51867;DHT22;52862;52.504;13.480;2022-08-19T03:39:41;21.20;99.90
51867;DHT22;52862;52.504;13.480;2022-08-19T03:42:09;21.20;99.90
51867;DHT22;52862;52.504;13.480;2022-08-19T03:45:00;21.20;99.90
51867;DHT22;52862;52.504;13.480;2022-08-19T03:47:27;21.20;99.90
51867;DHT22;52862;52.504;13.480;2022-08-19T03:49:55;21.20;99.90
51867;DHT22;52862;52.504;13.480;2022-08-19T03:52:23;21.20;99.90
51867;DHT22;52862;52.504;13.480;2022-08-19T03:54:51;21.10;99.90
51867;DHT22;52862;52.504;13.480;2022-08-19T03:57:23;21.10;99.90
51867;DHT22;52862;52.504;13.480;2022-08-19T04:00:03;21.20;99.90
51867;DHT22;52862;52.504;13.480;2022-08-19T04:02:56;21.20;99.90
51867;DHT22;52862;52.504;13.480;2022-08-19T04:05:27;21.20;99.90
51867;DHT22;52862;52.504;13.480;2022-08-19T04:07:59;21.30;99.90
51867;DHT22;52862;52.504;13.480;2022-08-19T04:10:50;21.20;99.90
51867;DHT22;52862;52.504;13.480;2022-08-19T04:13:48;21.10;99.90
51867;DHT22;52862;52.504;13.480;2022-08-19T04:16:23;21.10;99.90
51867;DHT22;52862;52.504;13.480;2022-08-19T04:19:09;21.20;99.90
51867;DHT22;52862;52.504;13.480;2022-08-19T04:21:53;21.20;99.90
51867;DHT22;52862;52.504;13.480;2022-08-19T04:25:06;21.30;99.90
51867;DHT22;52862;52.504;13.480;2022-08-19T04:27:44;21.40;99.90
51867;DHT22;52862;52.504;13.480;2022-08-19T04:30:41;21.50;99.90
51867;DHT22;52862;52.504;13.480;2022-08-19T04:33:21;21.50;99.90
51867;DHT22;52862;52.504;13.480;2022-08-19T04:36:18;21.50;99.90
51867;DHT22;52862;52.504;13.480;2022-08-19T04:39:29;21.50;99.90
51867;DHT22;52862;52.504;13.480;2022-08-19T04:42:30;21.50;99.90
51867;DHT22;52862;52.504;13.480;2022-08-19T04:45:15;21.50;99.90
51867;DHT22;52862;52.504;13.480;2022-08-19T04:48:07;21.40;99.90
51867;DHT22;52862;52.504;13.480;2022-08-19T04:51:01;21.50;99.90
51867;DHT22;52862;52.504;13.480;2022-08-19T04:54:01;21.60;99.90
51867;DHT22;52862;52.504;13.480;2022-08-19T04:57:09;21.70;99.90
51867;DHT22;52862;52.504;13.480;2022-08-19T04:59:58;21.70;99.90
51867;DHT22;52862;52.504;13.480;2022-08-19T05:21:08;21.90;99.90
51867;DHT22;52862;52.504;13.480;2022-08-19T05:24:18;20.50;99.90
51867;DHT22;52862;52.504;13.480;2022-08-19T05:27:59;22.10;99.90
51867;DHT22;52862;52.504;13.480;2022-08-19T05:38:45;22.40;99.90
51867;DHT22;52862;52.504;13.480;2022-08-19T05:46:08;22.40;99.90
51867;DHT22;52862;52.504;13.480;2022-08-19T05:49:47;22.50;99.90
51867;DHT22;52862;52.504;13.480;2022-08-19T05:53:24;22.70;99.90
51867;DHT22;52862;52.504;13.480;2022-08-19T06:04:00;22.70;99.90
51867;DHT22;52862;52.504;13.480;2022-08-19T06:06:44;22.70;99.90
51867;DHT22;52862;52.504;13.480;2022-08-19T06:09:42;22.80;99.90
51867;DHT22;52862;52.504;13.480;2022-08-19T06:12:35;22.70;99.90
51867;DHT22;52862;52.504;13.480;2022-08-19T06:15:26;22.70;99.90
51867;DHT22;52862;52.504;13.480;2022-08-19T06:18:12;22.80;99.90
51867;DHT22;52862;52.504;13.480;2022-08-19T06:20:47;22.80;99.90
51867;DHT22;52862;52.504;13.480;2022-08-19T06:23:41;22.90;99.90
51867;DHT22;52862;52.504;13.480;2022-08-19T06:29:00;22.80;99.90
51867;DHT22;52862;52.504;13.480;2022-08-19T06:32:08;22.80;99.90
51867;DHT22;52862;52.504;13.480;2022-08-19T06:34:41;22.90;99.90
51867;DHT22;52862;52.504;13.480;2022-08-19T06:37:19;22.80;99.90
51867;DHT22;52862;52.504;13.480;2022-08-19T06:40:08;23.00;99.90
51867;DHT22;52862;52.504;13.480;2022-08-19T06:42:50;23.00;99.90
51867;DHT22;52862;52.504;13.480;2022-08-19T06:45:37;23.10;99.90
51867;DHT22;52862;52.504;13.480;2022-08-19T06:48:18;23.20;99.90
51867;DHT22;52862;52.504;13.480;2022-08-19T06:51:29;23.40;99.90
51867;DHT22;52862;52.504;13.480;2022-08-19T06:54:59;23.40;99.90
51867;DHT22;52862;52.504;13.480;2022-08-19T06:57:44;23.30;99.90
51867;DHT22;52862;52.504;13.480;2022-08-19T07:00:21;23.50;99.90
51867;DHT22;52862;52.504;13.480;2022-08-19T07:03:18;23.60;99.90
51867;DHT22;52862;52.504;13.480;2022-08-19T07:05:53;23.60;99.90
51867;DHT22;52862;52.504;13.480;2022-08-19T07:09:37;23.40;99.90
51867;DHT22;52862;52.504;13.480;2022-08-19T07:12:10;23.80;99.90
51867;DHT22;52862;52.504;13.480;2022-08-19T07:15:03;23.90;99.90
51867;DHT22;52862;52.504;13.480;2022-08-19T07:17:35;23.80;99.90
51867;DHT22;52862;52.504;13.480;2022-08-19T07:20:06;24.00;99.90
51867;DHT22;52862;52.504;13.480;2022-08-19T07:23:13;23.80;99.90
51867;DHT22;52862;52.504;13.480;2022-08-19T07:25:42;23.80;99.90
51867;DHT22;52862;52.504;13.480;2022-08-19T07:28:09;23.80;99.90
51867;DHT22;52862;52.504;13.480;2022-08-19T07:30:53;23.80;99.90
51867;DHT22;52862;52.504;13.480;2022-08-19T07:33:21;23.70;99.90
51867;DHT22;52862;52.504;13.480;2022-08-19T07:35:47;23.80;99.90
51867;DHT22;52862;52.504;13.480;2022-08-19T07:38:16;23.90;99.90
51867;DHT22;52862;52.504;13.480;2022-08-19T07:40:44;24.00;99.90
51867;DHT22;52862;52.504;13.480;2022-08-19T07:43:12;24.10;99.90
51867;DHT22;52862;52.504;13.480;2022-08-19T07:45:43;24.00;99.90
51867;DHT22;52862;52.504;13.480;2022-08-19T07:48:10;24.00;99.90
51867;DHT22;52862;52.504;13.480;2022-08-19T07:50:37;24.10;99.90
51867;DHT22;52862;52.504;13.480;2022-08-19T07:53:04;24.10;99.90
51867;DHT22;52862;52.504;13.480;2022-08-19T07:55:32;23.90;99.90
51867;DHT22;52862;52.504;13.480;2022-08-19T07:58:11;23.80;99.90
51867;DHT22;52862;52.504;13.480;2022-08-19T08:00:39;23.80;99.90
51867;DHT22;52862;52.504;13.480;2022-08-19T08:03:05;23.90;99.90
51867;DHT22;52862;52.504;13.480;2022-08-19T08:05:32;23.90;99.90
51867;DHT22;52862;52.504;13.480;2022-08-19T08:08:18;23.90;99.90
51867;DHT22;52862;52.504;13.480;2022-08-19T08:11:11;23.90;99.90
51867;DHT22;52862;52.504;13.480;2022-08-19T08:13:41;24.00;99.90
51867;DHT22;52862;52.504;13.480;2022-08-19T08:16:08;23.90;99.90
51867;DHT22;52862;52.504;13.480;2022-08-19T08:18:40;24.10;99.90
51867;DHT22;52862;52.504;13.480;2022-08-19T08:21:08;23.90;99.90
51867;DHT22;52862;52.504;13.480;2022-08-19T08:23:36;23.70;99.90
51867;DHT22;52862;52.504;13.480;2022-08-19T08:26:05;23.50;99.90
51867;DHT22;52862;52.504;13.480;2022-08-19T08:28:33;23.70;99.90
51867;DHT22;52862;52.504;13.480;2022-08-19T08:30:59;23.80;99.90
51867;DHT22;52862;52.504;13.480;2022-08-19T08:33:28;23.90;99.90
51867;DHT22;52862;52.504;13.480;2022-08-19T08:36:01;24.10;99.90
51867;DHT22;52862;52.504;13.480;2022-08-19T08:38:30;24.60;99.90
51867;DHT22;52862;52.504;13.480;2022-08-19T08:41:09;25.00;99.90
51867;DHT22;52862;52.504;13.480;2022-08-19T08:43:40;25.10;99.90
51867;DHT22;52862;52.504;13.480;2022-08-19T08:46:13;24.50;99.90
51867;DHT22;52862;52.504;13.480;2022-08-19T08:49:01;24.80;99.90
51867;DHT22;52862;52.504;13.480;2022-08-19T08:51:34;25.10;99.90
51867;DHT22;52862;52.504;13.480;2022-08-19T08:54:04;25.20;99.90
51867;DHT22;52862;52.504;13.480;2022-08-19T08:56:33;25.30;99.90
51867;DHT22;52862;52.504;13.480;2022-08-19T08:59:05;25.10;99.90
51867;DHT22;52862;52.504;13.480;2022-08-19T09:01:36;25.20;99.90
51867;DHT22;52862;52.504;13.480;2022-08-19T09:04:07;25.30;99.90
51867;DHT22;52862;52.504;13.480;2022-08-19T09:06:40;25.20;99.90
51867;DHT22;52862;52.504;13.480;2022-08-19T09:09:14;25.20;99.90
51867;DHT22;52862;52.504;13.480;2022-08-19T09:11:50;25.00;99.90
51867;DHT22;52862;52.504;13.480;2022-08-19T09:14:30;25.00;99.90
51867;DHT22;52862;52.504;13.480;2022-08-19T09:17:17;25.00;99.90
51867;DHT22;52862;52.504;13.480;2022-08-19T09:19:53;24.90;99.90
51867;DHT22;52862;52.504;13.480;2022-08-19T09:22:21;25.00;99.90
51867;DHT22;52862;52.504;13.480;2022-08-19T09:24:52;24.80;99.90
51867;DHT22;52862;52.504;13.480;2022-08-19T09:27:19;24.80;99.90
51867;DHT22;52862;52.504;13.480;2022-08-19T09:29:47;25.00;99.90
51867;DHT22;52862;52.504;13.480;2022-08-19T09:32:16;25.20;99.90
51867;DHT22;52862;52.504;13.480;2022-08-19T09:34:52;25.20;99.90
51867;DHT22;52862;52.504;13.480;2022-08-19T09:37:20;25.10;99.90
51867;DHT22;52862;52.504;13.480;2022-08-19T09:39:51;24.80;99.90
51867;DHT22;52862;52.504;13.480;2022-08-19T09:42:18;25.00;99.90
51867;DHT22;52862;52.504;13.480;2022-08-19T09:45:02;25.10;99.90
51867;DHT22;52862;52.504;13.480;2022-08-19T09:47:31;25.00;99.90
51867;DHT22;52862;52.504;13.480;2022-08-19T09:50:03;25.00;99.90
51867;DHT22;52862;52.504;13.480;2022-08-19T09:52:30;25.00;99.90
51867;DHT22;52862;52.504;13.480;2022-08-19T09:54:58;25.10;99.90
51867;DHT22;52862;52.504;13.480;2022-08-19T09:57:25;25.00;99.90
51867;DHT22;52862;52.504;13.480;2022-08-19T09:59:52;25.00;99.90
51867;DHT22;52862;52.504;13.480;2022-08-19T10:02:20;24.80;99.90
51867;DHT22;52862;52.504;13.480;2022-08-19T10:04:48;24.90;99.90
51867;DHT22;52862;52.504;13.480;2022-08-19T10:07:35;24.80;99.90
51867;DHT22;52862;52.504;13.480;2022-08-19T10:10:03;24.70;99.90
51867;DHT22;52862;52.504;13.480;2022-08-19T10:12:30;24.60;99.90
51867;DHT22;52862;52.504;13.480;2022-08-19T10:14:57;24.60;99.90
51867;DHT22;52862;52.504;13.480;2022-08-19T10:17:24;24.70;99.90
51867;DHT22;52862;52.504;13.480;2022-08-19T10:19:59;24.80;99.90
51867;DHT22;52862;52.504;13.480;2022-08-19T10:22:36;24.80;99.90
51867;DHT22;52862;52.504;13.480;2022-08-19T10:25:05;24.70;99.90
51867;DHT22;52862;52.504;13.480;2022-08-19T10:27:32;24.60;99.90
51867;DHT22;52862;52.504;13.480;2022-08-19T10:30:01;24.80;99.90
51867;DHT22;52862;52.504;13.480;2022-08-19T10:32:29;25.00;99.90
51867;DHT22;52862;52.504;13.480;2022-08-19T10:35:00;25.40;99.90
51867;DHT22;52862;52.504;13.480;2022-08-19T10:37:27;25.60;99.90
51867;DHT22;52862;52.504;13.480;2022-08-19T10:39:57;25.40;99.90
51867;DHT22;52862;52.504;13.480;2022-08-19T10:42:24;25.30;99.90
51867;DHT22;52862;52.504;13.480;2022-08-19T10:44:50;25.50;99.90
51867;DHT22;52862;52.504;13.480;2022-08-19T10:47:18;25.40;99.90
51867;DHT22;52862;52.504;13.480;2022-08-19T10:49:53;25.20;99.90
51867;DHT22;52862;52.504;13.480;2022-08-19T10:52:39;25.10;99.90
51867;DHT22;52862;52.504;13.480;2022-08-19T10:55:17;24.90;99.90
51867;DHT22;52862;52.504;13.480;2022-08-19T10:58:02;24.70;99.90
51867;DHT22;52862;52.504;13.480;2022-08-19T11:00:30;24.70;99.90
51867;DHT22;52862;52.504;13.480;2022-08-19T11:02:57;24.50;99.90
51867;DHT22;52862;52.504;13.480;2022-08-19T11:05:25;24.40;99.90
51867;DHT22;52862;52.504;13.480;2022-08-19T11:07:52;24.50;99.90
51867;DHT22;52862;52.504;13.480;2022-08-19T11:10:19;24.60;99.90
51867;DHT22;52862;52.504;13.480;2022-08-19T11:12:48;24.60;99.90
51867;DHT22;52862;52.504;13.480;2022-08-19T11:15:20;24.50;99.90
51867;DHT22;52862;52.504;13.480;2022-08-19T11:17:47;24.60;99.90
51867;DHT22;52862;52.504;13.480;2022-08-19T11:20:15;24.50;99.90
51867;DHT22;52862;52.504;13.480;2022-08-19T11:22:42;24.40;99.90
51867;DHT22;52862;52.504;13.480;2022-08-19T11:25:10;24.30;99.90
51867;DHT22;52862;52.504;13.480;2022-08-19T11:27:40;24.10;99.90
51867;DHT22;52862;52.504;13.480;2022-08-19T11:30:09;24.10;99.90
51867;DHT22;52862;52.504;13.480;2022-08-19T11:32:39;24.00;99.90
51867;DHT22;52862;52.504;13.480;2022-08-19T11:35:06;24.30;99.90
51867;DHT22;52862;52.504;13.480;2022-08-19T11:37:33;24.40;99.90
51867;DHT22;52862;52.504;13.480;2022-08-19T11:40:05;24.60;99.90
51867;DHT22;52862;52.504;13.480;2022-08-19T11:42:32;24.40;99.90
51867;DHT22;52862;52.504;13.480;2022-08-19T11:45:17;24.40;99.90
51867;DHT22;52862;52.504;13.480;2022-08-19T11:47:44;24.40;99.90
51867;DHT22;52862;52.504;13.480;2022-08-19T11:50:12;24.40;99.90
51867;DHT22;52862;52.504;13.480;2022-08-19T11:52:39;24.40;99.90
51867;DHT22;52862;52.504;13.480;2022-08-19T11:55:08;24.50;99.90
51867;DHT22;52862;52.504;13.480;2022-08-19T11:57:34;24.60;99.90
51867;DHT22;52862;52.504;13.480;2022-08-19T12:00:02;24.80;99.90
51867;DHT22;52862;52.504;13.480;2022-08-19T12:02:30;25.00;99.90
51867;DHT22;52862;52.504;13.480;2022-08-19T12:04:58;25.20;99.90
51867;DHT22;52862;52.504;13.480;2022-08-19T12:07:24;25.00;99.90
51867;DHT22;52862;52.504;13.480;2022-08-19T12:09:51;25.00;99.90
51867;DHT22;52862;52.504;13.480;2022-08-19T12:12:19;24.70;99.90
51867;DHT22;52862;52.504;13.480;2022-08-19T12:14:46;24.90;99.90
51867;DHT22;52862;52.504;13.480;2022-08-19T12:17:13;25.40;99.90
51867;DHT22;52862;52.504;13.480;2022-08-19T12:19:39;25.40;99.90
51867;DHT22;52862;52.504;13.480;2022-08-19T12:22:06;25.30;99.90
51867;DHT22;52862;52.504;13.480;2022-08-19T12:24:34;25.10;99.90
51867;DHT22;52862;52.504;13.480;2022-08-19T12:27:00;25.00;99.90
51867;DHT22;52862;52.504;13.480;2022-08-19T12:29:29;25.00;99.90
51867;DHT22;52862;52.504;13.480;2022-08-19T12:31:58;25.00;99.90
51867;DHT22;52862;52.504;13.480;2022-08-19T12:34:31;25.00;99.90
51867;DHT22;52862;52.504;13.480;2022-08-19T12:37:00;25.10;99.90
51867;DHT22;52862;52.504;13.480;2022-08-19T12:39:27;25.30;99.90
51867;DHT22;52862;52.504;13.480;2022-08-19T12:41:54;25.50;99.90
51867;DHT22;52862;52.504;13.480;2022-08-19T12:44:21;25.50;99.90
51867;DHT22;52862;52.504;13.480;2022-08-19T12:46:58;25.20;99.90
51867;DHT22;52862;52.504;13.480;2022-08-19T12:49:27;24.80;99.90
51867;DHT22;52862;52.504;13.480;2022-08-19T12:52:14;24.70;99.90
51867;DHT22;52862;52.504;13.480;2022-08-19T12:54:43;24.60;99.90
51867;DHT22;52862;52.504;13.480;2022-08-19T12:57:10;24.70;99.90
51867;DHT22;52862;52.504;13.480;2022-08-19T12:59:38;24.80;99.90
51867;DHT22;52862;52.504;13.480;2022-08-19T13:02:07;25.30;99.90
51867;DHT22;52862;52.504;13.480;2022-08-19T13:04:34;25.50;99.90
51867;DHT22;52862;52.504;13.480;2022-08-19T13:07:03;25.40;99.90
51867;DHT22;52862;52.504;13.480;2022-08-19T13:09:30;25.40;99.90
51867;DHT22;52862;52.504;13.480;2022-08-19T13:11:57;25.30;99.90
51867;DHT22;52862;52.504;13.480;2022-08-19T13:14:24;25.20;99.90
51867;DHT22;52862;52.504;13.480;2022-08-19T13:16:52;25.10;99.90
51867;DHT22;52862;52.504;13.480;2022-08-19T13:19:20;25.20;99.90
51867;DHT22;52862;52.504;13.480;2022-08-19T13:21:50;25.40;99.90
51867;DHT22;52862;52.504;13.480;2022-08-19T13:24:26;25.40;99.90
51867;DHT22;52862;52.504;13.480;2022-08-19T13:26:59;25.20;99.90
51867;DHT22;52862;52.504;13.480;2022-08-19T13:29:26;25.10;99.90
51867;DHT22;52862;52.504;13.480;2022-08-19T13:32:11;25.20;99.90
51867;DHT22;52862;52.504;13.480;2022-08-19T13:34:58;25.10;99.90
51867;DHT22;52862;52.504;13.480;2022-08-19T13:37:25;25.20;99.90
51867;DHT22;52862;52.504;13.480;2022-08-19T13:40:07;25.00;99.90
51867;DHT22;52862;52.504;13.480;2022-08-19T13:42:39;25.10;99.90
51867;DHT22;52862;52.504;13.480;2022-08-19T13:45:06;25.20;99.90
51867;DHT22;52862;52.504;13.480;2022-08-19T13:47:33;25.20;99.90
51867;DHT22;52862;52.504;13.480;2022-08-19T13:50:02;25.30;99.90
51867;DHT22;52862;52.504;13.480;2022-08-19T13:52:29;25.40;99.90
51867;DHT22;52862;52.504;13.480;2022-08-19T13:54:56;25.50;99.90
51867;DHT22;52862;52.504;13.480;2022-08-19T13:57:23;25.50;99.90
51867;DHT22;52862;52.504;13.480;2022-08-19T13:59:50;24.80;99.90
51867;DHT22;52862;52.504;13.480;2022-08-19T14:02:19;24.90;99.90
51867;DHT22;52862;52.504;13.480;2022-08-19T14:04:46;25.00;99.90
51867;DHT22;52862;52.504;13.480;2022-08-19T14:07:13;25.00;99.90
51867;DHT22;52862;52.504;13.480;2022-08-19T14:09:40;24.90;99.90
51867;DHT22;52862;52.504;13.480;2022-08-19T14:12:08;24.80;99.90
51867;DHT22;52862;52.504;13.480;2022-08-19T14:14:36;24.80;99.90
51867;DHT22;52862;52.504;13.480;2022-08-19T14:17:06;24.80;99.90
51867;DHT22;52862;52.504;13.480;2022-08-19T14:19:33;24.80;99.90
51867;DHT22;52862;52.504;13.480;2022-08-19T14:22:00;24.70;99.90
51867;DHT22;52862;52.504;13.480;2022-08-19T14:24:28;24.60;99.90
51867;DHT22;52862;52.504;13.480;2022-08-19T14:26:54;24.60;99.90
51867;DHT22;52862;52.504;13.480;2022-08-19T14:29:21;24.60;99.90
51867;DHT22;52862;52.504;13.480;2022-08-19T14:31:48;24.60;99.90
51867;DHT22;52862;52.504;13.480;2022-08-19T14:34:15;24.70;99.90
51867;DHT22;52862;52.504;13.480;2022-08-19T14:36:42;24.80;99.90
51867;DHT22;52862;52.504;13.480;2022-08-19T14:39:09;24.90;99.90
51867;DHT22;52862;52.504;13.480;2022-08-19T14:41:36;24.90;99.90
51867;DHT22;52862;52.504;13.480;2022-08-19T14:44:06;24.80;99.90
51867;DHT22;52862;52.504;13.480;2022-08-19T14:46:33;24.80;99.90
51867;DHT22;52862;52.504;13.480;2022-08-19T14:49:00;24.90;99.90
51867;DHT22;52862;52.504;13.480;2022-08-19T14:51:35;24.70;99.90
51867;DHT22;52862;52.504;13.480;2022-08-19T14:54:01;24.60;99.90
51867;DHT22;52862;52.504;13.480;2022-08-19T14:56:29;24.70;99.90
51867;DHT22;52862;52.504;13.480;2022-08-19T14:58:58;24.50;99.90
51867;DHT22;52862;52.504;13.480;2022-08-19T15:01:27;24.30;99.90
51867;DHT22;52862;52.504;13.480;2022-08-19T15:03:54;24.40;99.90
51867;DHT22;52862;52.504;13.480;2022-08-19T15:06:21;24.40;99.90
51867;DHT22;52862;52.504;13.480;2022-08-19T15:08:49;24.40;99.90
51867;DHT22;52862;52.504;13.480;2022-08-19T15:11:19;24.50;99.90
51867;DHT22;52862;52.504;13.480;2022-08-19T15:13:47;24.40;99.90
51867;DHT22;52862;52.504;13.480;2022-08-19T15:16:15;24.50;99.90
51867;DHT22;52862;52.504;13.480;2022-08-19T15:18:45;24.40;99.90
51867;DHT22;52862;52.504;13.480;2022-08-19T15:21:14;24.40;99.90
51867;DHT22;52862;52.504;13.480;2022-08-19T15:23:52;24.30;99.90
51867;DHT22;52862;52.504;13.480;2022-08-19T15:26:20;24.10;99.90
51867;DHT22;52862;52.504;13.480;2022-08-19T15:28:47;24.10;99.90
51867;DHT22;52862;52.504;13.480;2022-08-19T15:31:18;24.20;99.90
51867;DHT22;52862;52.504;13.480;2022-08-19T15:33:55;24.20;99.90
51867;DHT22;52862;52.504;13.480;2022-08-19T15:36:23;24.20;99.90
51867;DHT22;52862;52.504;13.480;2022-08-19T15:38:51;24.20;99.90
51867;DHT22;52862;52.504;13.480;2022-08-19T15:41:20;24.20;99.90
51867;DHT22;52862;52.504;13.480;2022-08-19T15:43:52;24.00;99.90
51867;DHT22;52862;52.504;13.480;2022-08-19T15:46:21;23.90;99.90
51867;DHT22;52862;52.504;13.480;2022-08-19T15:48:49;23.90;99.90
51867;DHT22;52862;52.504;13.480;2022-08-19T15:51:23;23.90;99.90
51867;DHT22;52862;52.504;13.480;2022-08-19T15:53:50;23.90;99.90
51867;DHT22;52862;52.504;13.480;2022-08-19T15:56:18;23.90;99.90
51867;DHT22;52862;52.504;13.480;2022-08-19T15:58:45;23.90;99.90
51867;DHT22;52862;52.504;13.480;2022-08-19T16:01:33;23.90;99.90
51867;DHT22;52862;52.504;13.480;2022-08-19T16:04:19;24.00;99.90
51867;DHT22;52862;52.504;13.480;2022-08-19T16:07:04;23.90;99.90
51867;DHT22;52862;52.504;13.480;2022-08-19T16:09:33;23.80;99.90
51867;DHT22;52862;52.504;13.480;2022-08-19T16:12:03;23.80;99.90
51867;DHT22;52862;52.504;13.480;2022-08-19T16:14:33;23.60;99.90
51867;DHT22;52862;52.504;13.480;2022-08-19T16:17:01;23.50;99.90
51867;DHT22;52862;52.504;13.480;2022-08-19T16:19:28;23.50;99.90
51867;DHT22;52862;52.504;13.480;2022-08-19T16:21:57;23.40;99.90
51867;DHT22;52862;52.504;13.480;2022-08-19T16:24:26;23.40;99.90
51867;DHT22;52862;52.504;13.480;2022-08-19T16:26:54;23.30;99.90
51867;DHT22;52862;52.504;13.480;2022-08-19T16:29:22;23.30;99.90
51867;DHT22;52862;52.504;13.480;2022-08-19T16:32:08;23.30;99.90
51867;DHT22;52862;52.504;13.480;2022-08-19T16:34:39;23.40;99.90
51867;DHT22;52862;52.504;13.480;2022-08-19T16:37:06;23.50;99.90